Bonus, Illinois
Current Conditions -  °F | °C
As of 7:54 AM on Thursday 30 Oct 2014 (Local Time) from KRFD Reporting Station
Overcast Overcast  
Wind Chill: 33°   Ceiling: 15000
Heat Index: 33°   Visibility: 10mi
Dew Point: 30°   Wind: 0mph
Humidity: 89%   Direction: NA
Pressure: 30.14"   Gusts: NA
Location:  42.267°N, 88.7326°W
Report Text: KRFD 301254Z 00000KT 10SM OVC150 01/M01 A3014 RMK AO2 SLP212 T00061011
Loading
Personal Weather Stations






























Interactive Weather Map
Tropical Storm Tracking
New forecast layout! Learn more

10-Day Weather Forecast

Advertisements
Track Severe Weather on mobile